| time (UTC) | temp F | wind direction | speed MPH | gust MPH | rain 1hr in | rain 24hr in | rain mn in | humidity % | barometer mb |
| 20260902072605 | 75 | 74 | 8.0 | 14.0 | 0.00 | 0.00 | 0.00 | 60 | 1016.5 |
| 20260902071605 | 75 | 51 | 5.0 | 16.0 | 0.00 | 0.00 | 0.00 | 61 | 1016.2 |
| 20260902071105 | 74 | 52 | 12.0 | 15.0 | 0.00 | 0.00 | 0.00 | 62 | 1016.0 |
| 20260902070605 | 74 | 52 | 7.0 | 13.0 | 0.00 | 0.00 | 0.00 | 62 | 1016.2 |
| 20260902065605 | 74 | 53 | 12.0 | 14.0 | 0.00 | 0.00 | 0.00 | 62 | 1015.8 |
| 20260902065105 | 75 | 58 | 10.0 | 14.0 | 0.00 | 0.00 | 0.00 | 58 | 1016.1 |
| 20260902064605 | 78 | 48 | 6.0 | 9.0 | 0.00 | 0.00 | 0.00 | 51 | 1015.7 |
| 20260902064105 | 78 | 40 | 3.0 | 9.0 | 0.00 | 0.00 | 0.00 | 47 | 1015.9 |
| 20260902063605 | 77 | 76 | 6.0 | 10.0 | 0.00 | 0.00 | 0.00 | 50 | 1015.5 |
| 20260902063105 | 78 | 105 | 6.0 | 12.0 | 0.00 | 0.00 | 0.00 | 48 | 1015.4 |
| 20260902061606 | 77 | 75 | 7.0 | 9.0 | 0.00 | 0.00 | 0.00 | 51 | 1015.3 |
| 20260902060605 | 76 | 72 | 3.0 | 9.0 | 0.00 | 0.00 | 0.00 | 53 | 1015.3 |
| 20260902060105 | 75 | 79 | 7.0 | 10.0 | 0.00 | 0.00 | 0.00 | 58 | 1015.5 |
| 20260902055605 | 76 | 57 | 2.0 | 5.0 | 0.00 | 0.00 | 0.00 | 55 | 1015.5 |
| 20260902055105 | 76 | 83 | 3.0 | 7.0 | 0.00 | 0.00 | 0.00 | 55 | 1015.4 |
| 20260902054605 | 76 | 92 | 3.0 | 6.0 | 0.00 | 0.00 | 0.00 | 57 | 1015.3 |
| 20260902054106 | 75 | 112 | 3.0 | 6.0 | 0.00 | 0.00 | 0.00 | 60 | 1015.5 |
| 20260902053606 | 72 | 74 | 2.0 | 5.0 | 0.00 | 0.00 | 0.00 | 66 | 1015.6 |
| 20260902052605 | 71 | 81 | 3.0 | 7.0 | 0.00 | 0.00 | 0.00 | 71 | 1015.6 |
| 20260902052105 | 71 | 62 | 5.0 | 8.0 | 0.00 | 0.00 | 0.00 | 73 | 1015.7 |
| 20260902051105 | 71 | 96 | 4.0 | 10.0 | 0.00 | 0.00 | 0.00 | 74 | 1015.7 |
| 20260902050605 | 71 | 58 | 7.0 | 12.0 | 0.00 | 0.00 | 0.00 | 74 | 1015.6 |
| 20260902050105 | 72 | 61 | 8.0 | 12.0 | 0.00 | 0.00 | 0.00 | 73 | 1015.5 |
| 20260902045605 | 72 | 60 | 8.0 | 12.0 | 0.00 | 0.00 | 0.00 | 73 | 1015.5 |
| 20260902045105 | 72 | 57 | 8.0 | 13.0 | 0.00 | 0.00 | 0.00 | 72 | 1015.5 |
| 20260902044605 | 72 | 60 | 8.0 | 12.0 | 0.00 | 0.00 | 0.00 | 73 | 1015.5 |
| 20260902044105 | 71 | 62 | 7.0 | 12.0 | 0.00 | 0.00 | 0.00 | 73 | 1015.5 |
| 20260902043106 | 72 | 56 | 8.0 | 10.0 | 0.00 | 0.00 | 0.00 | 72 | 1015.3 |
| 20260902042604 | 72 | 54 | 7.0 | 10.0 | 0.00 | 0.00 | 0.00 | 72 | 1015.3 |
| 20260902042104 | 71 | 57 | 5.0 | 8.0 | 0.00 | 0.00 | 0.00 | 72 | 1015.1 |
| 20260902041605 | 71 | 117 | 1.0 | 8.0 | 0.00 | 0.00 | 0.00 | 72 | 1015.1 |
| 20260902041105 | 72 | 63 | 6.0 | 8.0 | 0.00 | 0.00 | 0.00 | 71 | 1015.1 |
| 20260902040605 | 72 | 72 | 6.0 | 7.0 | 0.00 | 0.00 | 0.00 | 70 | 1015.5 |
| 20260902040106 | 71 | 53 | 3.0 | 6.0 | 0.00 | 0.00 | 0.00 | 72 | 1015.5 |
| 20260902035605 | 72 | 64 | 6.0 | 9.0 | 0.00 | 0.00 | 0.00 | 70 | 1015.4 |
| 20260902035105 | 73 | 61 | 5.0 | 7.0 | 0.00 | 0.00 | 0.00 | 69 | 1015.5 |
| 20260902034605 | 71 | 56 | 3.0 | 6.0 | 0.00 | 0.00 | 0.00 | 72 | 1015.4 |
| 20260902034105 | 71 | 156 | 1.0 | 3.0 | 0.00 | 0.00 | 0.00 | 73 | 1015.6 |
| 20260902033606 | 71 | 34 | 3.0 | 5.0 | 0.00 | 0.00 | 0.00 | 72 | 1015.5 |
| 20260902033106 | 71 | 287 | 1.0 | 3.0 | 0.00 | 0.00 | 0.00 | 72 | 1015.5 |
| 20260902032605 | 71 | 77 | 2.0 | 5.0 | 0.00 | 0.00 | 0.00 | 72 | 1015.2 |
| 20260902032105 | 71 | 59 | 2.0 | 5.0 | 0.00 | 0.00 | 0.00 | 72 | 1015.2 |
| 20260902031105 | 72 | 64 | 6.0 | 8.0 | 0.00 | 0.00 | 0.00 | 71 | 1015.2 |
| 20260902030605 | 72 | 48 | 6.0 | 9.0 | 0.00 | 0.00 | 0.00 | 71 | 1015.1 |
| 20260902025605 | 72 | 62 | 5.0 | 8.0 | 0.00 | 0.00 | 0.00 | 71 | 1014.9 |
| 20260902025105 | 72 | 75 | 3.0 | 7.0 | 0.00 | 0.00 | 0.00 | 71 | 1014.9 |
| 20260902024605 | 72 | 60 | 5.0 | 7.0 | 0.00 | 0.00 | 0.00 | 71 | 1015.4 |
| 20260902024106 | 72 | 78 | 5.0 | 7.0 | 0.00 | 0.00 | 0.00 | 71 | 1015.3 |
| 20260902023606 | 71 | 83 | 5.0 | 8.0 | 0.00 | 0.00 | 0.00 | 72 | 1015.4 |
| 20260902023104 | 72 | 46 | 6.0 | 9.0 | 0.00 | 0.00 | 0.00 | 71 | 1015.2 |
| 20260902022604 | 72 | 68 | 6.0 | 8.0 | 0.00 | 0.00 | 0.00 | 71 | 1015.6 |
| 20260902022106 | 72 | 70 | 6.0 | 8.0 | 0.00 | 0.00 | 0.00 | 70 | 1015.4 |
| 20260902021104 | 71 | 51 | 3.0 | 3.0 | 0.00 | 0.00 | 0.00 | 73 | 1015.7 |
| 20260902020105 | 71 | 286 | 1.0 | 1.0 | 0.00 | 0.00 | 0.00 | 74 | 1015.8 |
| 20260902015605 | 72 | 186 | 0.0 | 3.0 | 0.00 | 0.00 | 0.00 | 73 | 1015.5 |
| 20260902014605 | 72 | 234 | 1.0 | 3.0 | 0.00 | 0.00 | 0.00 | 74 | 1015.6 |
| 20260902014105 | 72 | 72 | 2.0 | 3.0 | 0.00 | 0.00 | 0.00 | 73 | 1015.7 |
| 20260902013605 | 71 | 63 | 2.0 | 3.0 | 0.00 | 0.00 | 0.00 | 73 | 1016.2 |
| 20260902012606 | 72 | 258 | 1.0 | 2.0 | 0.00 | 0.00 | 0.00 | 72 | 1015.8 |
| 20260902012106 | 72 | 41 | 2.0 | 3.0 | 0.00 | 0.00 | 0.00 | 72 | 1015.9 |
| 20260902011604 | 72 | 356 | 1.0 | 2.0 | 0.00 | 0.00 | 0.00 | 72 | 1016.1 |
| 20260902011106 | 72 | 283 | 1.0 | 3.0 | 0.00 | 0.00 | 0.00 | 71 | 1015.8 |
| 20260902010604 | 72 | 54 | 3.0 | 6.0 | 0.00 | 0.00 | 0.00 | 72 | 1015.8 |
| 20260902010105 | 72 | 67 | 3.0 | 6.0 | 0.00 | 0.00 | 0.00 | 72 | 1015.9 |
| 20260902005604 | 71 | 44 | 3.0 | 5.0 | 0.00 | 0.00 | 0.00 | 73 | 1016.1 |
| 20260902005106 | 72 | 200 | 3.0 | 5.0 | 0.00 | 0.00 | 0.00 | 72 | 1016.0 |
| 20260902004604 | 72 | 208 | 3.0 | 5.0 | 0.00 | 0.00 | 0.00 | 72 | 1016.1 |
| 20260902004105 | 72 | 178 | 2.0 | 5.0 | 0.00 | 0.00 | 0.00 | 72 | 1016.2 |
| 20260902002104 | 72 | 209 | 1.0 | 2.0 | 0.00 | 0.00 | 0.00 | 72 | 1016.8 |
| 20260902000605 | 72 | 216 | 1.0 | 2.0 | 0.00 | 0.00 | 0.00 | 72 | 1016.9 |
| 20260902000105 | 72 | 175 | 2.0 | 3.0 | 0.00 | 0.00 | 0.00 | 72 | 1016.9 |
| 20260901235604 | 72 | 325 | 1.0 | 2.0 | 0.00 | 0.00 | 0.00 | 72 | 1017.2 |
| 20260901234605 | 73 | 56 | 2.0 | 3.0 | 0.00 | 0.00 | 0.00 | 71 | 1016.8 |
| 20260901234105 | 73 | 188 | 1.0 | 2.0 | 0.00 | 0.00 | 0.00 | 70 | 1016.7 |
| 20260901233606 | 73 | 236 | 2.0 | 5.0 | 0.00 | 0.00 | 0.00 | 70 | 1016.6 |
| 20260901232604 | 74 | 74 | 0.0 | 2.0 | 0.00 | 0.00 | 0.00 | 69 | 1016.5 |
| 20260901232105 | 73 | 113 | 1.0 | 2.0 | 0.00 | 0.00 | 0.00 | 69 | 1016.4 |
| 20260901231606 | 73 | 42 | 1.0 | 2.0 | 0.00 | 0.00 | 0.00 | 68 | 1016.5 |
| 20260901230605 | 73 | 70 | 2.0 | 3.0 | 0.00 | 0.00 | 0.00 | 68 | 1016.5 |
| 20260901230105 | 74 | 102 | 1.0 | 5.0 | 0.00 | 0.00 | 0.00 | 68 | 1016.6 |
| 20260901225605 | 73 | 60 | 2.0 | 3.0 | 0.00 | 0.00 | 0.00 | 68 | 1016.5 |
| 20260901225105 | 74 | 61 | 3.0 | 5.0 | 0.00 | 0.00 | 0.00 | 68 | 1016.5 |
| 20260901224605 | 74 | 60 | 5.0 | 5.0 | 0.00 | 0.00 | 0.00 | 68 | 1016.4 |
| 20260901224104 | 74 | 46 | 2.0 | 3.0 | 0.00 | 0.00 | 0.00 | 68 | 1016.5 |
| 20260901223605 | 74 | 141 | 0.0 | 2.0 | 0.00 | 0.00 | 0.00 | 67 | 1016.5 |
| 20260901223104 | 74 | 14 | 2.0 | 6.0 | 0.00 | 0.00 | 0.00 | 66 | 1016.4 |
| 20260901222605 | 74 | 72 | 4.0 | 7.0 | 0.00 | 0.00 | 0.00 | 66 | 1016.0 |
| 20260901222105 | 75 | 55 | 3.0 | 6.0 | 0.00 | 0.00 | 0.00 | 65 | 1015.9 |
| 20260901221606 | 74 | 105 | 2.0 | 5.0 | 0.00 | 0.00 | 0.00 | 66 | 1016.2 |
| 20260901221105 | 74 | 114 | 3.0 | 8.0 | 0.00 | 0.00 | 0.00 | 68 | 1016.4 |
| 20260901220105 | 74 | 141 | 5.0 | 8.0 | 0.00 | 0.00 | 0.00 | 68 | 1016.7 |
| 20260901215605 | 75 | 122 | 6.0 | 8.0 | 0.00 | 0.00 | 0.00 | 67 | 1016.7 |
| 20260901215105 | 75 | 123 | 5.0 | 8.0 | 0.00 | 0.00 | 0.00 | 67 | 1016.5 |
| 20260901214605 | 76 | 118 | 4.0 | 7.0 | 0.00 | 0.00 | 0.00 | 64 | 1016.5 |
| 20260901214105 | 75 | 107 | 6.0 | 13.0 | 0.00 | 0.00 | 0.00 | 65 | 1016.3 |
| 20260901213605 | 75 | 130 | 7.0 | 12.0 | 0.00 | 0.00 | 0.00 | 67 | 1016.2 |
| 20260901213105 | 75 | 143 | 7.0 | 9.0 | 0.00 | 0.00 | 0.00 | 66 | 1016.3 |
| 20260901212605 | 76 | 147 | 5.0 | 10.0 | 0.00 | 0.00 | 0.00 | 65 | 1016.4 |
| 20260901212105 | 76 | 115 | 7.0 | 12.0 | 0.00 | 0.00 | 0.00 | 64 | 1016.5 |
| 20260901211604 | 76 | 151 | 5.0 | 10.0 | 0.00 | 0.00 | 0.00 | 64 | 1016.6 |
| 20260901211104 | 76 | 113 | 5.0 | 9.0 | 0.00 | 0.00 | 0.00 | 63 | 1016.4 |
| 20260901210604 | 77 | 120 | 5.0 | 7.0 | 0.00 | 0.00 | 0.00 | 63 | 1016.5 |
| 20260901210105 | 76 | 118 | 6.0 | 9.0 | 0.00 | 0.00 | 0.00 | 64 | 1016.3 |
| 20260901205604 | 76 | 141 | 6.0 | 10.0 | 0.00 | 0.00 | 0.00 | 64 | 1016.1 |
| 20260901205104 | 77 | 148 | 6.0 | 10.0 | 0.00 | 0.00 | 0.00 | 64 | 1016.1 |
| 20260901204605 | 77 | 133 | 5.0 | 9.0 | 0.00 | 0.00 | 0.00 | 63 | 1016.2 |
| 20260901204105 | 77 | 128 | 5.0 | 8.0 | 0.00 | 0.00 | 0.00 | 63 | 1015.8 |
| 20260901203604 | 77 | 124 | 3.0 | 7.0 | 0.00 | 0.00 | 0.00 | 62 | 1015.9 |
| 20260901203104 | 78 | 139 | 4.0 | 7.0 | 0.00 | 0.00 | 0.00 | 61 | 1015.5 |
| 20260901202604 | 77 | 88 | 5.0 | 7.0 | 0.00 | 0.00 | 0.00 | 61 | 1015.6 |
| 20260901202106 | 77 | 124 | 5.0 | 8.0 | 0.00 | 0.00 | 0.00 | 62 | 1015.5 |
| 20260901201605 | 77 | 130 | 7.0 | 10.0 | 0.00 | 0.00 | 0.00 | 64 | 1015.6 |
| 20260901201105 | 77 | 125 | 6.0 | 10.0 | 0.00 | 0.00 | 0.00 | 63 | 1015.7 |
| 20260901200104 | 78 | 84 | 4.0 | 10.0 | 0.00 | 0.00 | 0.00 | 59 | 1015.2 |
| 20260901195605 | 79 | 91 | 5.0 | 9.0 | 0.00 | 0.00 | 0.00 | 58 | 1015.0 |
| 20260901195104 | 78 | 120 | 6.0 | 10.0 | 0.00 | 0.00 | 0.00 | 60 | 1015.0 |
| 20260901193605 | 79 | 154 | 7.0 | 12.0 | 0.00 | 0.00 | 0.00 | 60 | 1015.0 |
| 20260901193106 | 79 | 146 | 6.0 | 8.0 | 0.00 | 0.00 | 0.00 | 58 | 1014.8 |
| 20260901192105 | 79 | 149 | 6.0 | 8.0 | 0.00 | 0.00 | 0.00 | 59 | 1014.7 |
| 20260901191604 | 79 | 142 | 7.0 | 10.0 | 0.00 | 0.00 | 0.00 | 59 | 1014.7 |
| 20260901191104 | 80 | 127 | 5.0 | 8.0 | 0.00 | 0.00 | 0.00 | 58 | 1014.5 |
| 20260901190605 | 79 | 143 | 6.0 | 10.0 | 0.00 | 0.00 | 0.00 | 59 | 1014.5 |
| 20260901190104 | 79 | 138 | 6.0 | 10.0 | 0.00 | 0.00 | 0.00 | 59 | 1014.6 |
| 20260901185604 | 79 | 126 | 6.0 | 10.0 | 0.00 | 0.00 | 0.00 | 59 | 1014.2 |
| 20260901185104 | 80 | 150 | 7.0 | 12.0 | 0.00 | 0.00 | 0.00 | 59 | 1014.5 |
| 20260901184604 | 80 | 147 | 7.0 | 10.0 | 0.00 | 0.00 | 0.00 | 57 | 1014.3 |
| 20260901183605 | 81 | 155 | 5.0 | 10.0 | 0.00 | 0.00 | 0.00 | 55 | 1014.0 |
| 20260901183104 | 83 | 147 | 4.0 | 7.0 | 0.00 | 0.00 | 0.00 | 53 | 1013.9 |
| 20260901182604 | 84 | 172 | 4.0 | 7.0 | 0.00 | 0.00 | 0.00 | 48 | 1013.6 |
| 20260901182105 | 84 | 199 | 3.0 | 5.0 | 0.00 | 0.00 | 0.00 | 48 | 1013.7 |
| 20260901181607 | 84 | 212 | 3.0 | 5.0 | 0.00 | 0.00 | 0.00 | 48 | 1013.7 |
| 20260901181106 | 85 | 200 | 3.0 | 6.0 | 0.00 | 0.00 | 0.00 | 48 | 1013.5 |
| 20260901180606 | 85 | 224 | 3.0 | 7.0 | 0.00 | 0.00 | 0.00 | 49 | 1013.5 |
| 20260901175607 | 85 | 250 | 5.0 | 9.0 | 0.00 | 0.00 | 0.00 | 49 | 1013.6 |
| 20260901175106 | 85 | 252 | 7.0 | 9.0 | 0.00 | 0.00 | 0.00 | 49 | 1013.5 |
| 20260901174606 | 85 | 247 | 7.0 | 10.0 | 0.00 | 0.00 | 0.00 | 50 | 1013.3 |
| 20260901172606 | 88 | 204 | 2.0 | 3.0 | 0.00 | 0.00 | 0.00 | 45 | 1012.7 |
| 20260901172106 | 87 | 250 | 3.0 | 5.0 | 0.00 | 0.00 | 0.00 | 45 | 1013.0 |
| 20260901171606 | 87 | 227 | 4.0 | 8.0 | 0.00 | 0.00 | 0.00 | 47 | 1013.1 |
| 20260901171105 | 87 | 250 | 3.0 | 6.0 | 0.00 | 0.00 | 0.00 | 46 | 1013.2 |
| 20260901170606 | 88 | 259 | 4.0 | 7.0 | 0.00 | 0.00 | 0.00 | 45 | 1013.0 |
| 20260901165606 | 89 | 235 | 2.0 | 6.0 | 0.00 | 0.00 | 0.00 | 43 | 1012.7 |
| 20260901165106 | 89 | 148 | 2.0 | 5.0 | 0.00 | 0.00 | 0.00 | 43 | 1012.8 |
| 20260901164107 | 88 | 167 | 3.0 | 6.0 | 0.00 | 0.00 | 0.00 | 44 | 1013.0 |
| 20260901163106 | 87 | 193 | 3.0 | 7.0 | 0.00 | 0.00 | 0.00 | 46 | 1012.8 |
| 20260901162606 | 88 | 207 | 3.0 | 7.0 | 0.00 | 0.00 | 0.00 | 44 | 1012.8 |
| 20260901162106 | 89 | 192 | 3.0 | 7.0 | 0.00 | 0.00 | 0.00 | 43 | 1012.7 |
| 20260901161606 | 88 | 140 | 2.0 | 10.0 | 0.00 | 0.00 | 0.00 | 46 | 1013.1 |
| 20260901161106 | 87 | 194 | 5.0 | 10.0 | 0.00 | 0.00 | 0.00 | 47 | 1013.0 |
| 20260901160606 | 87 | 193 | 7.0 | 12.0 | 0.00 | 0.00 | 0.00 | 46 | 1012.9 |
| 20260901155606 | 88 | 181 | 6.0 | 13.0 | 0.00 | 0.00 | 0.00 | 45 | 1013.1 |
| 20260901155105 | 87 | 185 | 7.0 | 15.0 | 0.00 | 0.00 | 0.00 | 45 | 1013.2 |
| 20260901153607 | 88 | 194 | 9.0 | 15.0 | 0.00 | 0.00 | 0.00 | 44 | 1013.1 |
| 20260901153107 | 88 | 198 | 11.0 | 16.0 | 0.00 | 0.00 | 0.00 | 43 | 1013.0 |
| 20260901152606 | 90 | 196 | 6.0 | 12.0 | 0.00 | 0.00 | 0.00 | 37 | 1012.9 |
| 20260901152106 | 89 | 209 | 6.0 | 13.0 | 0.00 | 0.00 | 0.00 | 37 | 1013.0 |
| 20260901151607 | 89 | 217 | 8.0 | 13.0 | 0.00 | 0.00 | 0.00 | 36 | 1013.0 |
| 20260901151106 | 90 | 195 | 7.0 | 13.0 | 0.00 | 0.00 | 0.00 | 34 | 1012.7 |
| 20260901150606 | 90 | 221 | 6.0 | 12.0 | 0.00 | 0.00 | 0.00 | 36 | 1012.6 |
| 20260901150106 | 91 | 216 | 7.0 | 10.0 | 0.00 | 0.00 | 0.00 | 33 | 1012.7 |
| 20260901145606 | 91 | 188 | 7.0 | 12.0 | 0.00 | 0.00 | 0.00 | 33 | 1012.6 |
| 20260901145105 | 91 | 223 | 4.0 | 13.0 | 0.00 | 0.00 | 0.00 | 33 | 1012.7 |
| 20260901144606 | 90 | 209 | 7.0 | 13.0 | 0.00 | 0.00 | 0.00 | 34 | 1012.7 |
| 20260901144105 | 90 | 206 | 4.0 | 12.0 | 0.00 | 0.00 | 0.00 | 35 | 1012.7 |
| 20260901143607 | 91 | 206 | 5.0 | 13.0 | 0.00 | 0.00 | 0.00 | 34 | 1012.7 |
| 20260901143106 | 89 | 247 | 7.0 | 14.0 | 0.00 | 0.00 | 0.00 | 36 | 1013.0 |
| 20260901142607 | 89 | 250 | 7.0 | 12.0 | 0.00 | 0.00 | 0.00 | 38 | 1013.0 |
| 20260901142106 | 89 | 278 | 5.0 | 12.0 | 0.00 | 0.00 | 0.00 | 38 | 1012.9 |
| 20260901141106 | 88 | 251 | 6.0 | 10.0 | 0.00 | 0.00 | 0.00 | 40 | 1013.0 |
| 20260901140606 | 89 | 267 | 4.0 | 10.0 | 0.00 | 0.00 | 0.00 | 39 | 1013.0 |
| 20260901140106 | 88 | 256 | 5.0 | 10.0 | 0.00 | 0.00 | 0.00 | 40 | 1013.0 |
| 20260901135605 | 88 | 242 | 5.0 | 12.0 | 0.00 | 0.00 | 0.00 | 40 | 1013.0 |
| 20260901134607 | 90 | 173 | 5.0 | 12.0 | 0.00 | 0.00 | 0.00 | 35 | 1013.5 |
| 20260901134105 | 90 | 208 | 5.0 | 9.0 | 0.00 | 0.00 | 0.00 | 36 | 1013.3 |
| 20260901133606 | 88 | 237 | 7.0 | 12.0 | 0.00 | 0.00 | 0.00 | 41 | 1013.5 |
| 20260901133105 | 87 | 309 | 6.0 | 9.0 | 0.00 | 0.00 | 0.00 | 45 | 1013.6 |
| 20260901132607 | 87 | 281 | 6.0 | 12.0 | 0.00 | 0.00 | 0.00 | 44 | 1013.7 |
| 20260901132107 | 87 | 296 | 4.0 | 13.0 | 0.00 | 0.00 | 0.00 | 44 | 1013.7 |
| 20260901131607 | 86 | 265 | 5.0 | 10.0 | 0.00 | 0.00 | 0.00 | 45 | 1013.8 |
| 20260901131106 | 88 | 198 | 6.0 | 13.0 | 0.00 | 0.00 | 0.00 | 43 | 1013.8 |
| 20260901130606 | 87 | 250 | 9.0 | 15.0 | 0.00 | 0.00 | 0.00 | 45 | 1013.5 |
| 20260901130106 | 88 | 173 | 4.0 | 7.0 | 0.00 | 0.00 | 0.00 | 40 | 1013.6 |
| 20260901125605 | 87 | 220 | 3.0 | 8.0 | 0.00 | 0.00 | 0.00 | 43 | 1013.8 |
| 20260901125107 | 87 | 195 | 5.0 | 12.0 | 0.00 | 0.00 | 0.00 | 43 | 1013.9 |
| 20260901124605 | 87 | 216 | 6.0 | 12.0 | 0.00 | 0.00 | 0.00 | 44 | 1013.9 |
| 20260901124106 | 86 | 207 | 5.0 | 12.0 | 0.00 | 0.00 | 0.00 | 45 | 1014.0 |
| 20260901123606 | 85 | 283 | 6.0 | 10.0 | 0.00 | 0.00 | 0.00 | 47 | 1013.9 |
| 20260901123107 | 85 | 218 | 9.0 | 14.0 | 0.00 | 0.00 | 0.00 | 45 | 1014.0 |
| 20260901122605 | 86 | 240 | 3.0 | 9.0 | 0.00 | 0.00 | 0.00 | 45 | 1014.1 |
| 20260901122106 | 86 | 189 | 5.0 | 10.0 | 0.00 | 0.00 | 0.00 | 45 | 1014.1 |
| 20260901121605 | 85 | 230 | 6.0 | 10.0 | 0.00 | 0.00 | 0.00 | 46 | 1014.1 |
| 20260901121106 | 86 | 182 | 3.0 | 10.0 | 0.00 | 0.00 | 0.00 | 44 | 1014.2 |
| 20260901120607 | 85 | 211 | 4.0 | 8.0 | 0.00 | 0.00 | 0.00 | 45 | 1014.3 |